Time;durP1;ratioP1;P1;durP2;ratioP2;P2;SDS_P1;SDS_P2;PMS_P1;PMS_P2;Temp;Humidity;BMP_temperature;BMP_pressure;BME280_temperature;BME280_humidity;BME280_pressure;Samples;Min_cycle;Max_cycle;Signal;HPM_P1;HPM_P2
2022/10/20 00:01:40;;;;;;;16.35;8.13;;;;;;;9.83;100.00;101506.25;5069106;28;20052;-72
2022/10/20 00:04:06;;;;;;;21.45;8.10;;;;;;;9.90;100.00;101514.66;5070654;28;20151;-73
2022/10/20 00:06:33;;;;;;;19.33;9.10;;;;;;;9.91;100.00;101512.69;5073687;28;20496;-73
2022/10/20 00:09:02;;;;;;;21.75;9.18;;;;;;;9.91;100.00;101507.97;5072947;28;20052;-73
2022/10/20 00:11:30;;;;;;;21.83;9.77;;;;;;;9.87;100.00;101514.59;5070385;28;20048;-73
2022/10/20 00:13:58;;;;;;;23.17;9.68;;;;;;;9.91;100.00;101519.03;5069335;28;20051;-73
2022/10/20 00:16:27;;;;;;;16.92;7.93;;;;;;;9.91;100.00;101505.19;5069449;28;20059;-73
2022/10/20 00:18:54;;;;;;;19.02;9.05;;;;;;;9.90;100.00;101503.63;5068800;28;20051;-73
2022/10/20 00:21:24;;;;;;;20.92;9.00;;;;;;;9.89;100.00;101504.75;5069919;28;20056;-73
2022/10/20 00:23:52;;;;;;;23.70;9.60;;;;;;;9.90;100.00;101505.56;5069238;28;20048;-73
2022/10/20 00:26:23;;;;;;;23.08;9.85;;;;;;;9.83;100.00;101495.19;5069385;28;20857;-73
2022/10/20 00:28:50;;;;;;;22.23;8.57;;;;;;;9.84;100.00;101491.28;5069424;28;20044;-73
2022/10/20 00:31:19;;;;;;;19.20;9.27;;;;;;;9.85;100.00;101489.28;5071306;28;20052;-73
2022/10/20 00:33:46;;;;;;;20.85;8.63;;;;;;;9.84;100.00;101491.28;5072542;28;20058;-73
2022/10/20 00:36:15;;;;;;;19.38;8.32;;;;;;;9.86;100.00;101482.63;5069452;28;20043;-73
2022/10/20 00:38:42;;;;;;;21.63;8.80;;;;;;;9.88;100.00;101478.31;5070120;28;20052;-73
2022/10/20 00:41:12;;;;;;;23.08;8.88;;;;;;;9.85;100.00;101473.50;5066355;28;20757;-73
2022/10/20 00:43:50;;;;;;;18.05;9.07;;;;;;;9.83;100.00;101462.03;5068448;28;20770;-73
2022/10/20 00:46:27;;;;;;;20.17;9.75;;;;;;;9.77;100.00;101458.03;5075470;28;20052;-73
2022/10/20 00:48:58;;;;;;;22.88;8.63;;;;;;;9.79;100.00;101455.66;5070883;28;20759;-72
2022/10/20 00:51:27;;;;;;;21.52;8.65;;;;;;;9.81;100.00;101447.81;5069565;28;20048;-72
2022/10/20 00:54:02;;;;;;;20.15;8.10;;;;;;;9.78;100.00;101448.53;5070420;28;20055;-73
2022/10/20 00:56:28;;;;;;;17.77;7.97;;;;;;;9.79;100.00;101443.81;5060172;28;20055;-72
2022/10/20 00:58:55;;;;;;;16.13;7.55;;;;;;;9.75;100.00;101438.25;5054469;28;20051;-72
2022/10/20 01:01:21;;;;;;;20.90;10.00;;;;;;;9.77;100.00;101435.09;5062701;28;20876;-72
2022/10/20 01:03:50;;;;;;;22.85;9.02;;;;;;;9.75;100.00;101432.72;5061559;28;20081;-73
2022/10/20 01:06:19;;;;;;;18.38;8.45;;;;;;;9.77;100.00;101424.84;5064614;28;20066;-73
2022/10/20 01:08:45;;;;;;;17.90;8.57;;;;;;;9.75;100.00;101415.31;5062902;28;20906;-73
2022/10/20 01:11:34;;;;;;;19.90;8.45;;;;;;;9.73;100.00;101412.97;5057754;28;20044;-72
2022/10/20 01:14:11;;;;;;;22.35;8.35;;;;;;;9.70;100.00;101410.94;5056843;28;20887;-73
2022/10/20 01:17:05;;;;;;;22.85;10.07;;;;;;;9.67;100.00;101410.88;5057568;28;20145;-73
2022/10/20 01:19:44;;;;;;;16.17;6.97;;;;;;;9.67;100.00;101416.41;5054387;28;20055;-72
2022/10/20 01:22:10;;;;;;;21.13;7.90;;;;;;;9.67;100.00;101419.16;5063044;28;20282;-73
2022/10/20 01:25:05;;;;;;;17.33;7.57;;;;;;;9.65;100.00;101418.75;5056681;28;20464;-73
2022/10/20 01:27:37;;;;;;;18.35;7.78;;;;;;;9.63;100.00;101419.13;5052880;28;20892;-73
2022/10/20 01:30:06;;;;;;;18.38;8.32;;;;;;;9.61;100.00;101404.06;5057545;28;20044;-73
2022/10/20 01:32:45;;;;;;;17.83;7.82;;;;;;;9.54;100.00;101396.50;5055096;28;20051;-72
2022/10/20 01:35:30;;;;;;;17.20;7.45;;;;;;;9.58;100.00;101399.28;5056795;28;20060;-73
2022/10/20 01:38:19;;;;;;;20.85;8.13;;;;;;;9.57;100.00;101390.22;5057730;28;20044;-73
2022/10/20 01:41:01;;;;;;;17.58;8.10;;;;;;;9.54;100.00;101385.44;5066800;28;20048;-73
2022/10/20 01:43:34;;;;;;;22.08;9.27;;;;;;;9.55;100.00;101384.28;5084392;28;20055;-72
2022/10/20 01:46:03;;;;;;;20.65;8.85;;;;;;;9.55;100.00;101377.97;5087636;28;20055;-72
2022/10/20 01:48:33;;;;;;;21.13;8.23;;;;;;;9.54;100.00;101368.88;5077919;28;20520;-72
2022/10/20 01:51:02;;;;;;;16.83;7.57;;;;;;;9.49;100.00;101362.88;5083801;28;20040;-72
2022/10/20 01:53:29;;;;;;;18.73;8.20;;;;;;;9.55;100.00;101367.69;5080823;28;20060;-73
2022/10/20 01:55:58;;;;;;;20.58;8.23;;;;;;;9.55;100.00;101359.41;5096973;28;20053;-73
2022/10/20 01:58:30;;;;;;;24.77;8.98;;;;;;;9.55;100.00;101362.16;5083857;28;20047;-73
2022/10/20 02:01:07;;;;;;;20.38;7.97;;;;;;;9.50;100.00;101358.94;5081699;28;20113;-72
2022/10/20 02:03:51;;;;;;;;;;;;;;;9.50;100.00;101356.19;5073377;28;20052;-73
2022/10/20 02:06:43;;;;;;;18.15;8.43;;;;;;;9.50;100.00;101347.91;5081562;28;19985;-73
2022/10/20 02:09:42;;;;;;;19.08;7.85;;;;;;;9.46;100.00;101339.56;5081646;28;20045;-73
2022/10/20 02:12:16;;;;;;;18.08;7.85;;;;;;;9.45;100.00;101329.69;5084823;28;20114;-72
2022/10/20 02:14:44;;;;;;;20.95;8.48;;;;;;;9.44;100.00;101322.56;5083782;28;20044;-73
2022/10/20 02:17:14;;;;;;;21.90;8.05;;;;;;;9.43;100.00;101321.00;5087728;28;20055;-73
2022/10/20 02:19:44;;;;;;;23.45;8.55;;;;;;;9.43;100.00;101325.69;5071638;28;20049;-72
2022/10/20 02:22:14;;;;;;;22.98;9.30;;;;;;;9.42;100.00;101327.66;5087604;28;20135;-73
2022/10/20 02:24:44;;;;;;;21.63;8.82;;;;;;;9.41;100.00;101322.50;5079301;28;20056;-73
2022/10/20 02:27:17;;;;;;;21.35;8.48;;;;;;;9.38;100.00;101318.53;5071939;28;20049;-73
2022/10/20 02:29:50;;;;;;;20.92;8.48;;;;;;;9.40;100.00;101318.16;5083079;28;20052;-72
2022/10/20 02:32:17;;;;;;;20.42;9.02;;;;;;;9.41;100.00;101317.78;5088277;28;20123;-72
2022/10/20 02:34:46;;;;;;;21.60;8.75;;;;;;;9.38;100.00;101310.25;5072009;28;20044;-72
2022/10/20 02:37:13;;;;;;;24.80;9.57;;;;;;;9.42;100.00;101316.63;5088074;28;20056;-73
2022/10/20 02:39:39;;;;;;;24.40;9.43;;;;;;;9.43;100.00;101304.41;5084373;28;20049;-72
2022/10/20 02:42:06;;;;;;;17.80;8.05;;;;;;;9.40;100.00;101305.16;5073410;28;20044;-72
2022/10/20 02:44:41;;;;;;;21.65;8.23;;;;;;;9.38;100.00;101285.41;5080228;28;20064;-73
2022/10/20 02:47:09;;;;;;;20.90;9.70;;;;;;;9.38;100.00;101290.91;5087434;28;20044;-72
2022/10/20 02:49:36;;;;;;;19.48;8.30;;;;;;;9.36;100.00;101285.00;5081142;28;20136;-72
2022/10/20 02:52:02;;;;;;;21.65;8.68;;;;;;;9.36;100.00;101270.38;5075725;28;20052;-72
2022/10/20 02:54:29;;;;;;;22.23;9.38;;;;;;;9.37;100.00;101266.44;5074791;28;20052;-73
2022/10/20 02:56:58;;;;;;;19.40;8.52;;;;;;;9.38;100.00;101273.56;5068459;28;20048;-74
2022/10/20 02:59:24;;;;;;;22.45;9.07;;;;;;;9.33;100.00;101271.94;5078555;28;20508;-71
2022/10/20 03:01:51;;;;;;;17.98;8.25;;;;;;;9.35;100.00;101277.84;5090950;28;20044;-73
2022/10/20 03:04:18;;;;;;;23.00;8.45;;;;;;;9.35;100.00;101268.78;5080200;28;20133;-74
2022/10/20 03:06:44;;;;;;;21.70;7.75;;;;;;;9.38;100.00;101273.56;5078281;28;20527;-70
2022/10/20 03:09:11;;;;;;;22.45;8.20;;;;;;;9.38;100.00;101268.81;5075937;28;20159;-71
2022/10/20 03:11:37;;;;;;;19.63;7.68;;;;;;;9.34;100.00;101259.72;5080271;28;20053;-71
2022/10/20 03:14:07;;;;;;;21.10;7.93;;;;;;;9.33;100.00;101260.06;5087319;28;20048;-71
2022/10/20 03:16:33;;;;;;;20.65;8.57;;;;;;;9.33;100.00;101262.84;5086971;28;20059;-71
2022/10/20 03:18:59;;;;;;;20.60;8.38;;;;;;;9.31;100.00;101260.44;5079536;28;20105;-73
2022/10/20 03:21:32;;;;;;;21.90;8.73;;;;;;;9.32;100.00;101264.78;5074671;28;20094;-71
2022/10/20 03:23:59;;;;;;;17.60;7.65;;;;;;;9.31;100.00;101254.13;5085922;28;20496;-73
2022/10/20 03:26:27;;;;;;;21.20;8.70;;;;;;;9.31;100.00;101259.66;5081539;28;20070;-73
2022/10/20 03:28:54;;;;;;;20.80;8.85;;;;;;;9.34;100.00;101259.72;5072317;28;20722;-72
2022/10/20 03:31:20;;;;;;;19.85;8.25;;;;;;;9.33;100.00;101258.13;5084959;28;20105;-72
2022/10/20 03:33:47;;;;;;;19.73;8.68;;;;;;;9.31;100.00;101252.16;5076699;28;20044;-72
2022/10/20 03:36:13;;;;;;;20.65;8.55;;;;;;;9.34;100.00;101251.41;5077917;28;20052;-75
2022/10/20 03:38:41;;;;;;;18.27;8.27;;;;;;;9.30;100.00;101250.59;5088618;28;20048;-72
2022/10/20 03:41:09;;;;;;;22.45;9.15;;;;;;;9.33;100.00;101243.50;5086946;28;20048;-71
2022/10/20 03:43:39;;;;;;;25.73;9.05;;;;;;;9.28;100.00;101241.09;5079265;28;20086;-71
2022/10/20 03:46:08;;;;;;;21.25;8.60;;;;;;;9.28;100.00;101233.59;5091505;28;20043;-73
2022/10/20 03:48:34;;;;;;;23.42;9.18;;;;;;;9.26;100.00;101230.41;5088316;28;20466;-73
2022/10/20 03:51:02;;;;;;;23.38;9.77;;;;;;;9.26;100.00;101238.72;5091736;28;20048;-74
2022/10/20 03:53:32;;;;;;;22.00;9.00;;;;;;;9.26;100.00;101222.13;5087146;28;20043;-72
2022/10/20 03:55:58;;;;;;;18.40;8.70;;;;;;;9.22;100.00;101203.94;5088150;28;20048;-72
2022/10/20 03:58:25;;;;;;;18.27;8.30;;;;;;;9.27;100.00;101211.88;5078807;28;20044;-72
2022/10/20 04:00:51;;;;;;;21.52;8.57;;;;;;;9.25;100.00;101203.97;5081473;28;20511;-72
2022/10/20 04:03:18;;;;;;;18.00;9.05;;;;;;;9.22;100.00;101201.94;5078543;28;20400;-72
2022/10/20 04:05:44;;;;;;;22.77;9.73;;;;;;;9.22;100.00;101199.19;5070904;28;20493;-74
2022/10/20 04:08:11;;;;;;;24.95;9.65;;;;;;;9.23;100.00;101195.28;5078412;28;20040;-74
2022/10/20 04:10:38;;;;;;;18.60;8.85;;;;;;;9.28;100.00;101202.44;5079253;28;20044;-71
2022/10/20 04:13:04;;;;;;;21.13;10.38;;;;;;;9.28;100.00;101211.50;5073433;28;20044;-72
2022/10/20 04:15:31;;;;;;;24.77;9.32;;;;;;;9.27;100.00;101196.09;5102561;27;20042;-72
2022/10/20 04:17:57;;;;;;;21.58;9.18;;;;;;;9.32;100.00;101194.97;5088112;28;20121;-71
2022/10/20 04:20:24;;;;;;;21.13;8.98;;;;;;;9.29;100.00;101188.25;5087732;28;20565;-74
2022/10/20 04:22:51;;;;;;;23.88;10.27;;;;;;;9.30;100.00;101194.56;5075832;28;20105;-72
2022/10/20 04:25:17;;;;;;;20.85;9.32;;;;;;;9.31;100.00;101190.59;5083993;28;20476;-72
2022/10/20 04:27:44;;;;;;;20.40;9.77;;;;;;;9.33;100.00;101189.09;5080372;28;20051;-72
2022/10/20 04:30:11;;;;;;;21.15;9.05;;;;;;;9.32;100.00;101176.44;5085283;28;20048;-72
2022/10/20 04:32:37;;;;;;;22.00;9.65;;;;;;;9.28;100.00;101174.81;5080965;28;20535;-72
2022/10/20 04:35:04;;;;;;;21.13;9.13;;;;;;;9.33;100.00;101185.50;5082789;28;20059;-71
2022/10/20 04:37:31;;;;;;;19.85;10.20;;;;;;;9.31;100.00;101180.38;5079917;28;20102;-71
2022/10/20 04:39:57;;;;;;;21.23;9.07;;;;;;;9.30;100.00;101186.25;5082836;28;20052;-71
2022/10/20 04:42:24;;;;;;;23.60;9.38;;;;;;;9.33;100.00;101182.75;5081926;28;20528;-74
2022/10/20 04:44:50;;;;;;;21.77;9.77;;;;;;;9.34;100.00;101181.56;5077099;28;20064;-73
2022/10/20 04:47:17;;;;;;;22.40;8.98;;;;;;;9.35;100.00;101172.13;5086356;28;20067;-73
2022/10/20 04:49:43;;;;;;;26.77;9.90;;;;;;;9.31;100.00;101152.75;5080378;28;20105;-73
2022/10/20 04:52:10;;;;;;;19.98;9.05;;;;;;;9.34;100.00;101151.19;5072268;28;20048;-73
2022/10/20 04:54:36;;;;;;;21.85;9.70;;;;;;;9.34;100.00;101152.00;5078928;28;20060;-74
2022/10/20 04:57:04;;;;;;;18.92;9.23;;;;;;;9.32;100.00;101148.03;5067257;28;20048;-73
2022/10/20 04:59:31;;;;;;;22.35;9.98;;;;;;;9.31;100.00;101141.72;5076647;28;20043;-73
2022/10/20 05:01:58;;;;;;;20.48;10.10;;;;;;;9.34;100.00;101140.16;5083112;28;20048;-74
2022/10/20 05:04:24;;;;;;;24.17;10.40;;;;;;;9.34;100.00;101134.63;5072860;28;20063;-73
2022/10/20 05:06:54;;;;;;;22.42;10.40;;;;;;;9.38;100.00;101124.44;5078431;28;20056;-72
2022/10/20 05:09:20;;;;;;;30.00;10.43;;;;;;;9.39;100.00;101126.78;5078142;28;20049;-72
2022/10/20 05:11:46;;;;;;;24.98;10.43;;;;;;;9.41;100.00;101120.88;5077720;28;20055;-74
2022/10/20 05:14:13;;;;;;;23.63;9.65;;;;;;;9.42;100.00;101128.78;5081181;28;20520;-73
2022/10/20 05:16:39;;;;;;;22.50;10.43;;;;;;;9.42;100.00;101126.03;5074053;28;20446;-73
2022/10/20 05:19:06;;;;;;;23.40;9.43;;;;;;;9.43;100.00;101113.84;5083740;28;20082;-74
2022/10/20 05:21:35;;;;;;;22.63;9.38;;;;;;;9.41;100.00;101096.84;5078124;28;20488;-74
2022/10/20 05:24:04;;;;;;;23.80;10.65;;;;;;;9.41;100.00;101088.56;5080988;28;20044;-73
2022/10/20 05:26:35;;;;;;;23.88;9.65;;;;;;;9.41;100.00;101071.97;5069465;28;20497;-72
2022/10/20 05:29:06;;;;;;;23.83;11.02;;;;;;;9.43;100.00;101077.94;5078779;28;20114;-73
2022/10/20 05:31:38;;;;;;;25.67;11.40;;;;;;;9.44;100.00;101073.19;5091136;28;20074;-71
2022/10/20 05:34:08;;;;;;;20.92;9.70;;;;;;;9.45;100.00;101064.50;5106240;28;20062;-71
2022/10/20 05:36:38;;;;;;;21.95;11.60;;;;;;;9.45;100.00;101064.50;5083597;28;20047;-72
2022/10/20 05:39:04;;;;;;;23.35;10.68;;;;;;;9.47;100.00;101066.91;5080362;28;20055;-72
2022/10/20 05:41:34;;;;;;;25.73;12.68;;;;;;;9.48;100.00;101063.75;5077454;28;20105;-72
2022/10/20 05:44:07;;;;;;;23.58;11.05;;;;;;;9.50;100.00;101072.47;5074920;28;20052;-73
2022/10/20 05:46:41;;;;;;;19.92;10.25;;;;;;;9.49;100.00;101062.56;5085226;28;20060;-72
2022/10/20 05:49:15;;;;;;;22.23;11.02;;;;;;;9.49;100.00;101065.34;5089219;28;20054;-74
2022/10/20 05:51:43;;;;;;;26.38;11.73;;;;;;;9.49;100.00;101061.78;5074002;28;20049;-71
2022/10/20 05:54:11;;;;;;;23.10;11.00;;;;;;;9.54;100.00;101062.22;5087816;28;20048;-72
2022/10/20 05:56:38;;;;;;;23.65;11.25;;;;;;;9.56;100.00;101064.63;5086646;28;20048;-72
2022/10/20 05:59:07;;;;;;;23.50;10.30;;;;;;;9.56;100.00;101059.91;5091512;28;20405;-71
2022/10/20 06:01:49;;;;;;;25.65;10.20;;;;;;;9.57;100.00;101055.94;5090853;28;20055;-71
2022/10/20 06:04:18;;;;;;;23.45;10.63;;;;;;;9.56;100.00;101048.03;5091561;28;20091;-71
2022/10/20 06:06:44;;;;;;;29.70;12.30;;;;;;;9.55;100.00;101052.75;5090856;28;20420;-71
2022/10/20 06:09:11;;;;;;;23.77;11.00;;;;;;;9.57;100.00;101063.44;5090301;28;20733;-71
2022/10/20 06:11:38;;;;;;;25.83;11.38;;;;;;;9.57;100.00;101058.72;5093739;28;20097;-70
2022/10/20 06:14:06;;;;;;;26.17;11.35;;;;;;;9.58;100.00;101060.28;5090843;28;20079;-71
2022/10/20 06:16:33;;;;;;;23.00;10.27;;;;;;;9.59;100.00;101056.34;5089294;28;20067;-71
2022/10/20 06:19:00;;;;;;;23.30;10.73;;;;;;;9.56;100.00;101059.91;5090393;28;20044;-71
2022/10/20 06:21:30;;;;;;;24.45;11.43;;;;;;;9.61;100.00;101058.72;5088167;28;20109;-71
2022/10/20 06:23:58;;;;;;;23.48;11.10;;;;;;;9.62;100.00;101066.63;5093700;28;20411;-72
2022/10/20 06:26:31;;;;;;;22.33;10.52;;;;;;;9.63;100.00;101059.94;5085062;28;20109;-71
2022/10/20 06:28:59;;;;;;;25.83;10.98;;;;;;;9.63;100.00;101051.66;5089127;28;20097;-71
2022/10/20 06:31:42;;;;;;;22.58;11.02;;;;;;;9.67;100.00;101051.69;5089220;28;20048;-72
2022/10/20 06:34:12;;;;;;;22.88;10.43;;;;;;;9.68;100.00;101058.78;5092768;28;20052;-70
2022/10/20 06:36:40;;;;;;;26.20;11.85;;;;;;;9.69;100.00;101058.41;5090063;28;20444;-71
2022/10/20 06:39:09;;;;;;;30.75;13.25;;;;;;;9.65;100.00;101052.06;5091155;28;20040;-71
2022/10/20 06:41:39;;;;;;;26.38;11.88;;;;;;;9.75;100.00;101078.19;5089214;28;20048;-70
2022/10/20 06:44:06;;;;;;;26.65;11.18;;;;;;;9.78;100.00;101064.41;5088996;28;20753;-73
2022/10/20 06:46:35;;;;;;;26.42;11.52;;;;;;;9.79;100.00;101060.44;5088392;28;20507;-73
2022/10/20 06:49:04;;;;;;;24.13;11.90;;;;;;;9.81;100.00;101063.63;5087794;28;20048;-72
2022/10/20 06:51:32;;;;;;;28.70;11.38;;;;;;;9.81;100.00;101057.31;5094898;28;20069;-72
2022/10/20 06:53:59;;;;;;;23.23;11.60;;;;;;;9.82;100.00;101050.63;5097462;28;20044;-73
2022/10/20 06:56:28;;;;;;;27.33;11.27;;;;;;;9.85;100.00;101044.31;5090384;28;20150;-74
2022/10/20 06:59:00;;;;;;;24.58;12.30;;;;;;;9.90;100.00;101047.53;5107659;28;20054;-74
2022/10/20 07:01:32;;;;;;;22.17;12.88;;;;;;;9.93;100.00;101051.47;5095711;28;20476;-72
2022/10/20 07:04:05;;;;;;;29.10;12.82;;;;;;;9.97;100.00;101052.28;5107479;28;20047;-72
2022/10/20 07:06:34;;;;;;;24.23;11.65;;;;;;;10.02;100.00;101054.69;5094114;28;20059;-71
2022/10/20 07:09:02;;;;;;;27.02;13.05;;;;;;;10.05;100.00;101068.53;5102600;28;20048;-73
2022/10/20 07:11:30;;;;;;;28.67;12.70;;;;;;;10.10;100.00;101056.38;5093487;28;20134;-73
2022/10/20 07:13:58;;;;;;;23.67;12.32;;;;;;;10.15;100.00;101053.22;5102459;28;20040;-73
2022/10/20 07:16:27;;;;;;;26.35;12.43;;;;;;;10.20;100.00;101061.94;5102907;28;20059;-73
2022/10/20 07:18:54;;;;;;;25.23;11.63;;;;;;;10.23;100.00;101058.41;5101529;28;20043;-72
2022/10/20 07:21:25;;;;;;;25.45;12.18;;;;;;;10.26;100.00;101054.09;5098256;28;20092;-72
2022/10/20 07:24:00;;;;;;;27.52;12.55;;;;;;;10.30;100.00;101038.31;5095883;28;20127;-72
2022/10/20 07:26:30;;;;;;;21.83;11.93;;;;;;;10.36;100.00;101047.81;5086436;28;20044;-73
2022/10/20 07:28:58;;;;;;;24.83;11.90;;;;;;;10.41;100.00;101047.44;5090724;28;20048;-73
2022/10/20 07:31:33;;;;;;;25.35;12.45;;;;;;;10.46;100.00;101042.31;5091214;28;20044;-71
2022/10/20 07:34:01;;;;;;;22.42;11.43;;;;;;;10.53;100.00;101047.88;5089255;28;20092;-75
2022/10/20 07:36:48;;;;;;;23.70;12.25;;;;;;;10.60;100.00;101049.09;5089262;28;20128;-71
2022/10/20 07:39:15;;;;;;;20.05;10.88;;;;;;;10.60;100.00;101052.69;5091757;28;20043;-72
2022/10/20 07:41:46;;;;;;;25.20;13.82;;;;;;;10.67;100.00;101054.66;5096016;28;20048;-72
2022/10/20 07:44:13;;;;;;;29.63;13.25;;;;;;;10.71;100.00;101047.97;5094421;28;20089;-73
2022/10/20 07:46:39;;;;;;;29.65;14.25;;;;;;;10.76;100.00;101060.66;5103419;28;20375;-71
2022/10/20 07:49:06;;;;;;;24.75;13.07;;;;;;;10.84;100.00;101048.41;5089693;28;20052;-73
2022/10/20 07:51:52;;;;;;;26.95;11.75;;;;;;;10.90;100.00;101044.06;5091020;28;20509;-73
2022/10/20 07:54:19;;;;;;;27.85;12.88;;;;;;;11.00;100.00;101055.16;5090146;28;20058;-73
2022/10/20 07:56:45;;;;;;;30.75;14.18;;;;;;;11.07;100.00;101046.88;5089579;28;20423;-74
2022/10/20 07:59:13;;;;;;;23.98;13.18;;;;;;;11.18;100.00;101052.44;5089894;28;20068;-72
2022/10/20 08:01:39;;;;;;;26.58;13.35;;;;;;;11.27;100.00;101048.09;5084930;28;20441;-71
2022/10/20 08:04:06;;;;;;;24.92;12.68;;;;;;;11.36;100.00;101039.41;5097137;28;20138;-72
2022/10/20 08:06:33;;;;;;;24.63;12.32;;;;;;;11.42;100.00;101032.28;5106242;28;20054;-73
2022/10/20 08:09:00;;;;;;;27.70;13.77;;;;;;;11.41;100.00;101012.09;5103732;28;20070;-71
2022/10/20 08:11:27;;;;;;;26.00;12.63;;;;;;;11.63;100.00;101024.00;5097217;28;20052;-74
2022/10/20 08:13:53;;;;;;;24.23;11.98;;;;;;;11.73;100.00;101020.41;5091770;28;20044;-71
2022/10/20 08:16:20;;;;;;;24.85;13.93;;;;;;;11.85;100.00;101017.25;5095965;28;20059;-72
2022/10/20 08:18:51;;;;;;;26.35;13.98;;;;;;;11.97;100.00;101014.03;5098650;28;20044;-72
2022/10/20 08:21:35;;;;;;;24.95;12.35;;;;;;;12.03;100.00;101007.72;5089598;28;20133;-72
2022/10/20 08:24:02;;;;;;;23.00;11.63;;;;;;;12.15;100.00;101009.25;5086703;28;20040;-73
2022/10/20 08:26:29;;;;;;;26.05;12.18;;;;;;;12.24;100.00;101012.38;5088786;28;20056;-72
2022/10/20 08:28:55;;;;;;;24.25;11.98;;;;;;;12.32;100.00;101020.28;5088537;28;20060;-73
2022/10/20 08:31:22;;;;;;;25.20;12.38;;;;;;;12.39;100.00;101014.72;5079289;28;20052;-73
2022/10/20 08:33:50;;;;;;;23.60;11.82;;;;;;;12.49;100.00;101013.88;5076404;28;20052;-71
2022/10/20 08:36:19;;;;;;;28.63;11.85;;;;;;;12.58;100.00;101008.69;5084457;28;20760;-71
2022/10/20 08:38:45;;;;;;;23.00;12.25;;;;;;;12.64;100.00;101004.31;5074030;28;20052;-73
2022/10/20 08:41:15;;;;;;;25.35;13.13;;;;;;;12.73;100.00;101001.09;5102002;28;20126;-74
2022/10/20 08:43:42;;;;;;;23.92;11.38;;;;;;;12.82;100.00;100993.09;5088058;28;20043;-73
2022/10/20 08:46:13;;;;;;;25.92;12.45;;;;;;;12.90;100.00;100995.41;5095404;28;20039;-73
2022/10/20 08:48:41;;;;;;;24.75;11.25;;;;;;;12.99;100.00;100984.69;5096711;28;20043;-73
2022/10/20 08:51:18;;;;;;;25.25;11.68;;;;;;;13.12;100.00;100989.78;5095035;28;20040;-73
2022/10/20 08:53:46;;;;;;;28.45;13.50;;;;;;;13.23;100.00;100982.13;5097131;28;20063;-73
2022/10/20 08:56:14;;;;;;;27.08;13.15;;;;;;;13.35;100.00;100985.22;5093733;28;20113;-73
2022/10/20 08:58:43;;;;;;;29.48;12.95;;;;;;;13.49;100.00;100982.31;5073448;28;20043;-74
2022/10/20 09:01:34;;;;;;;31.92;13.38;;;;;;;13.63;100.00;100981.41;5076899;28;20043;-73
2022/10/20 09:04:31;;;;;;;25.67;13.32;;;;;;;13.75;100.00;100978.09;5053014;28;20131;-74
2022/10/20 09:07:01;;;;;;;28.00;13.45;;;;;;;13.93;100.00;100990.63;5080360;28;20098;-73
2022/10/20 09:09:30;;;;;;;24.05;12.32;;;;;;;14.11;100.00;100987.66;5075897;28;20048;-72
2022/10/20 09:12:04;;;;;;;25.48;13.07;;;;;;;14.21;100.00;100973.59;5068448;28;20051;-73
2022/10/20 09:14:34;;;;;;;22.80;13.00;;;;;;;14.40;100.00;100975.00;5070208;28;20050;-73
2022/10/20 09:17:01;;;;;;;26.85;11.68;;;;;;;14.54;100.00;100964.47;5067175;28;20043;-73
2022/10/20 09:19:28;;;;;;;25.90;11.82;;;;;;;14.72;100.00;100972.59;5069803;28;20044;-74
2022/10/20 09:21:58;;;;;;;20.25;10.75;;;;;;;14.88;100.00;100981.09;5059066;28;20090;-73
2022/10/20 09:24:28;;;;;;;24.65;11.48;;;;;;;15.00;100.00;100974.97;5064015;28;20864;-72
2022/10/20 09:26:55;;;;;;;25.70;11.55;;;;;;;15.16;100.00;100972.34;5062382;28;20043;-72
2022/10/20 09:29:36;;;;;;;23.65;10.30;;;;;;;15.20;100.00;100970.28;5092948;28;20098;-73
2022/10/20 09:32:16;;;;;;;23.80;11.55;;;;;;;15.25;100.00;100972.56;5066146;28;20925;-73
2022/10/20 09:35:18;;;;;;;26.08;11.25;;;;;;;15.36;100.00;100976.03;5059790;28;20044;-73
2022/10/20 09:37:51;;;;;;;23.92;11.00;;;;;;;15.43;100.00;100959.94;5062748;28;20051;-73
2022/10/20 09:40:18;;;;;;;22.85;11.73;;;;;;;15.52;100.00;100958.63;5070421;28;20577;-73
2022/10/20 09:42:53;;;;;;;25.73;12.02;;;;;;;15.58;100.00;100957.72;5076572;28;20043;-73
2022/10/20 09:45:23;;;;;;;22.45;10.93;;;;;;;15.60;100.00;100958.09;5082493;28;20518;-71
2022/10/20 09:47:59;;;;;;;22.15;11.32;;;;;;;15.64;100.00;100941.25;5067240;28;20052;-72
2022/10/20 09:50:29;;;;;;;21.60;10.90;;;;;;;15.67;100.00;100934.84;5076540;28;20806;-73
2022/10/20 09:52:58;;;;;;;21.65;10.48;;;;;;;15.78;100.00;100938.22;5073178;28;20044;-73
2022/10/20 09:55:34;;;;;;;21.85;10.73;;;;;;;15.82;100.00;100936.16;5066423;28;20056;-72
2022/10/20 09:58:03;;;;;;;20.30;10.73;;;;;;;15.86;100.00;100939.66;5063311;28;20076;-72
2022/10/20 10:00:34;;;;;;;20.85;10.82;;;;;;;15.91;100.00;100933.56;5065982;28;20052;-72
2022/10/20 10:03:19;;;;;;;21.30;10.80;;;;;;;15.94;100.00;100932.72;5056212;28;20051;-71
2022/10/20 10:05:59;;;;;;;23.70;11.55;;;;;;;15.98;100.00;100933.44;5062260;28;20054;-73
2022/10/20 10:08:39;;;;;;;22.17;12.20;;;;;;;16.04;100.00;100940.91;5069939;28;20048;-73
2022/10/20 10:11:17;;;;;;;22.35;10.95;;;;;;;16.08;100.00;100936.03;5066163;28;20079;-73
2022/10/20 10:13:46;;;;;;;26.20;11.60;;;;;;;16.13;100.00;100932.72;5067142;28;21407;-74
2022/10/20 10:16:17;;;;;;;22.35;10.68;;;;;;;16.18;100.00;100920.28;5073838;28;20101;-73
2022/10/20 10:18:53;;;;;;;21.08;10.43;;;;;;;16.18;100.00;100918.28;5072997;28;20048;-71
2022/10/20 10:21:20;;;;;;;22.27;10.32;;;;;;;16.24;100.00;100921.34;5066913;28;20133;-72
2022/10/20 10:23:52;;;;;;;19.20;9.85;;;;;;;16.27;100.00;100924.06;5066299;28;20036;-72
2022/10/20 10:26:44;;;;;;;26.25;9.60;;;;;;;16.31;100.00;100932.38;5071265;28;20930;-72
2022/10/20 10:29:18;;;;;;;21.17;10.50;;;;;;;16.32;100.00;100933.94;5067776;28;20044;-73
2022/10/20 10:31:50;;;;;;;20.77;9.60;;;;;;;16.34;100.00;100923.94;5060653;28;20128;-72
2022/10/20 10:34:17;;;;;;;22.92;10.55;;;;;;;16.32;100.00;100933.94;5069582;28;20040;-72
2022/10/20 10:36:43;;;;;;;27.42;11.02;;;;;;;16.32;100.00;100933.94;5069628;28;20048;-72
2022/10/20 10:39:13;;;;;;;23.88;9.40;;;;;;;16.41;100.00;100945.31;5068470;28;20044;-73
2022/10/20 10:41:51;;;;;;;17.30;8.85;;;;;;;16.55;100.00;100942.25;5066425;28;20079;-72
2022/10/20 10:44:29;;;;;;;17.83;7.57;;;;;;;16.63;100.00;100946.44;5064098;28;20051;-75
2022/10/20 10:47:24;;;;;;;19.00;7.43;;;;;;;16.76;100.00;100945.34;5075276;28;20075;-72
2022/10/20 10:50:18;;;;;;;19.98;8.50;;;;;;;16.78;100.00;100945.69;5059271;28;20048;-73
2022/10/20 10:53:02;;;;;;;19.00;8.10;;;;;;;16.89;100.00;100954.63;5068004;28;20060;-73
2022/10/20 10:55:46;;;;;;;18.90;7.43;;;;;;;16.96;100.00;100954.47;5069922;28;20217;-72
2022/10/20 10:58:36;;;;;;;15.75;6.60;;;;;;;17.04;100.00;100952.31;5069250;28;20134;-72
2022/10/20 11:01:06;;;;;;;15.95;7.30;;;;;;;17.12;100.00;100934.13;5070468;28;20868;-70
2022/10/20 11:03:55;;;;;;;14.55;6.43;;;;;;;17.12;100.00;100948.09;5074745;28;20063;-73
2022/10/20 11:06:27;;;;;;;13.38;6.80;;;;;;;17.22;100.00;100944.28;5069617;28;20056;-73
2022/10/20 11:08:59;;;;;;;17.08;7.38;;;;;;;17.29;100.00;100946.88;5065925;28;20048;-74
2022/10/20 11:11:39;;;;;;;19.00;7.20;;;;;;;17.24;100.00;100936.22;5070177;28;20052;-73
2022/10/20 11:14:06;;;;;;;17.02;7.18;;;;;;;17.21;100.00;100935.09;5067751;28;20047;-74
2022/10/20 11:16:44;;;;;;;16.45;5.57;;;;;;;17.22;100.00;100924.69;5063902;28;20043;-72
2022/10/20 11:19:29;;;;;;;14.50;7.30;;;;;;;17.32;100.00;100927.22;5067497;28;20141;-72
2022/10/20 11:22:23;;;;;;;14.60;6.97;;;;;;;17.37;100.00;100920.31;5060277;28;20063;-72
2022/10/20 11:25:31;;;;;;;17.30;7.10;;;;;;;17.28;100.00;100925.75;5068750;28;20051;-71
2022/10/20 11:27:59;;;;;;;15.50;7.38;;;;;;;17.35;100.00;100917.19;5066641;28;20424;-71
2022/10/20 11:30:26;;;;;;;16.90;7.70;;;;;;;17.36;100.00;100910.34;5064974;28;20794;-72